Terminal Aerodrome Forecast
Issued by NWS

Current Version | Previous Version | Text Only | Print | Product List | Glossary Off
Versions: 1 2 3 4 5 6 7 8 9 10 11 12 13 14 15 16 17 18 19 20 21 22 23 24 25 26

196
FTUS41 KRNK 181120
TAFLWB
TAF
KLWB 181120Z 1812/1912 00000KT 1/4SM FG OVC001
     FM181300 24005KT 4SM BR BKN003
      TEMPO 1813/1814 2SM BR OVC020
     FM181500 24006KT P6SM VCSH BKN020
      TEMPO 1816/1818 2SM SHRA BR
     FM181900 28007KT P6SM VCTS SCT040CB BKN070
     FM182300 00000KT P6SM BKN100
     FM191100 00000KT 1SM BR FEW020=

USA.gov is the U.S. government's official web portal to all federal, state and local government web resources and services.